Accueil
METAR-TAF:

METAR-TAF

Aéroports :

Aéroport international de Nouakchott-Oumtounsy

Nouakchott, Mauritanie

latitude: 18-18-36N, longitude: 015-58-11W, altitude: 3 m

Observation

Le bulletin a été fait il y a 20 minutes, à 13:30 UTC
Vent 14 kt de est
Température 35°C
Humidité 4%
Pression 1013 hPa
Visibilité: 8000 m

METAR: GQNO 291330Z 08014KT 8000 NSC 35/M13 Q1013 NOSIG

Heure: 13:50 (13:50 UTC)

Prévision

Le bulletin a été fait il y a 2 heures et 50 minutes, à 11:00 UTC
Prévision valable du 29 à 12 UTC au 01 à 18 UTC
Vent 14 kt de est/nord-est
Visibilité: 7000 m
Evoluant progressivement
du 29 à 17 UTC au 29 à 21 UTC
Vent 12 kt de nord
Evoluant progressivement
du 01 à 08 UTC au 01 à 12 UTC
Vent 14 kt de est

TAF: GQNO 291100Z 2912/0118 07014KT 7000 NSC BECMG 2917/2921 36012KT BECMG 0108/0112 08014KT

Observations et prévisions météorologiques de plus de 4000 aéroports (messages METAR et TAF).

Les stations disponibles sont représentées par des disques jaunes et rouges sur la carte.

Passer la souris dessus pour voir le nom de la station.

Cliquer dessus pour voir les observations et prévisions météorologiques.

Pour changer de carte: cliquez sur les boutons verts avec une croix noire pour zoomer, sur le bouton vert avec un tiret pour effectuer un zoom arrière, ou sur les flèches vertes pour les cartes adjacentes.


METAR-TAF: